createdAt,value
2017-12-19T00:01:41.973Z,13.93
2017-12-19T00:04:08.385Z,13.10
2017-12-19T00:06:35.017Z,10.10
2017-12-19T00:09:01.383Z,9.40
2017-12-19T00:11:27.684Z,8.87
2017-12-19T00:13:54.106Z,7.47
2017-12-19T00:16:20.581Z,7.10
2017-12-19T00:18:47.389Z,6.87
2017-12-19T00:21:14.166Z,5.73
2017-12-19T00:23:41.513Z,5.17
2017-12-19T00:26:08.008Z,6.67
2017-12-19T00:28:34.452Z,6.57
2017-12-19T00:31:00.922Z,5.47
2017-12-19T00:33:27.335Z,5.17
2017-12-19T00:35:53.757Z,5.10
2017-12-19T00:38:20.293Z,5.83
2017-12-19T00:40:47.508Z,6.10
2017-12-19T00:43:14.673Z,6.30
2017-12-19T00:45:41.072Z,5.70
2017-12-19T00:48:07.765Z,6.53
2017-12-19T00:50:34.509Z,6.00
2017-12-19T00:53:00.930Z,4.97
2017-12-19T00:55:27.446Z,5.17
2017-12-19T00:57:54.821Z,4.30
2017-12-19T01:00:21.271Z,4.20
2017-12-19T01:02:47.709Z,4.67
2017-12-19T01:05:14.137Z,5.47
2017-12-19T01:07:40.534Z,6.13
2017-12-19T01:10:06.945Z,5.97
2017-12-19T01:12:33.637Z,5.97
2017-12-19T01:15:00.619Z,7.17
2017-12-19T01:17:27.121Z,8.57
2017-12-19T01:19:53.513Z,7.97
2017-12-19T01:22:20.294Z,7.70
2017-12-19T01:24:46.850Z,8.77
2017-12-19T01:27:13.237Z,7.57
2017-12-19T01:29:39.666Z,9.17
2017-12-19T01:32:06.062Z,9.60
2017-12-19T01:34:33.409Z,10.43
2017-12-19T01:36:59.785Z,9.20
2017-12-19T01:39:26.360Z,10.20
2017-12-19T01:41:52.784Z,10.20
2017-12-19T01:44:19.242Z,9.57
2017-12-19T01:46:46.577Z,11.03
2017-12-19T01:49:13.689Z,11.10
2017-12-19T01:51:40.993Z,11.27
2017-12-19T01:54:07.444Z,13.47
2017-12-19T01:56:33.785Z,13.43
2017-12-19T01:59:00.196Z,12.47
2017-12-19T02:01:26.548Z,15.07
2017-12-19T02:03:52.952Z,13.17
2017-12-19T02:06:19.435Z,15.50
2017-12-19T02:08:46.460Z,14.57
2017-12-19T02:11:12.888Z,15.40
2017-12-19T02:13:39.659Z,16.77
2017-12-19T02:16:06.094Z,15.10
2017-12-19T02:18:32.569Z,15.63
2017-12-19T02:20:59.100Z,16.00
2017-12-19T02:23:25.569Z,17.37
2017-12-19T02:25:53.156Z,18.47
2017-12-19T02:28:19.673Z,15.60
2017-12-19T02:30:46.125Z,17.30
2017-12-19T02:33:12.634Z,14.57
2017-12-19T02:35:40.093Z,17.37
2017-12-19T02:38:06.560Z,15.63
2017-12-19T02:40:33.004Z,18.27
2017-12-19T02:43:11.630Z,15.67
2017-12-19T02:45:38.094Z,15.63
2017-12-19T02:48:04.562Z,13.73
2017-12-19T02:50:31.042Z,13.90
2017-12-19T02:52:57.497Z,13.73
2017-12-19T02:55:25.080Z,12.23
2017-12-19T02:57:51.683Z,11.93
2017-12-19T03:00:18.114Z,12.80
2017-12-19T03:02:44.614Z,11.57
2017-12-19T03:05:11.102Z,12.47
2017-12-19T03:07:37.569Z,12.33
2017-12-19T03:10:04.045Z,10.33
2017-12-19T03:12:30.554Z,11.47
2017-12-19T03:14:57.053Z,12.10
2017-12-19T03:17:23.512Z,9.67
2017-12-19T03:19:50.089Z,9.47
2017-12-19T03:22:16.822Z,10.77
2017-12-19T03:24:43.266Z,10.03
2017-12-19T03:27:09.845Z,9.63
2017-12-19T03:29:36.395Z,10.37
2017-12-19T03:32:02.837Z,12.27
2017-12-19T03:34:29.401Z,9.40
2017-12-19T03:36:55.899Z,9.90
2017-12-19T03:39:22.669Z,11.57
2017-12-19T03:41:49.479Z,10.03
2017-12-19T03:44:15.936Z,11.63
2017-12-19T03:46:42.553Z,11.37
2017-12-19T03:49:09.126Z,11.77
2017-12-19T03:51:35.654Z,9.53
2017-12-19T03:54:02.197Z,11.83
2017-12-19T03:56:28.717Z,10.87
2017-12-19T03:58:55.426Z,11.37
2017-12-19T04:01:21.894Z,12.43
2017-12-19T04:03:49.206Z,11.63
2017-12-19T04:06:15.738Z,12.57
2017-12-19T04:08:42.249Z,11.03
2017-12-19T04:11:08.789Z,13.93
2017-12-19T04:13:35.320Z,13.20
2017-12-19T04:16:01.852Z,10.70
2017-12-19T04:18:28.689Z,10.87
2017-12-19T04:20:55.168Z,13.13
2017-12-19T04:23:21.646Z,12.13
2017-12-19T04:25:49.073Z,15.13
2017-12-19T04:28:15.846Z,14.37
2017-12-19T04:30:42.330Z,11.63
2017-12-19T04:33:08.865Z,14.07
2017-12-19T04:35:35.332Z,13.87
2017-12-19T04:38:01.822Z,11.37
2017-12-19T04:40:28.360Z,13.77
2017-12-19T04:42:55.090Z,15.90
2017-12-19T04:45:21.530Z,15.67
2017-12-19T04:47:48.199Z,16.43
2017-12-19T04:50:14.970Z,15.80
2017-12-19T04:52:41.448Z,15.07
2017-12-19T04:55:07.950Z,17.57
2017-12-19T04:57:34.424Z,17.83
2017-12-19T05:00:00.912Z,18.20
2017-12-19T11:30:05.682Z,48.83
2017-12-19T11:32:32.172Z,50.73
2017-12-19T11:34:58.625Z,47.90
2017-12-19T11:37:25.104Z,52.27
2017-12-19T11:39:51.582Z,56.20
2017-12-19T11:42:17.993Z,49.17
2017-12-19T11:44:44.437Z,43.27
2017-12-19T11:47:10.813Z,48.63
2017-12-19T11:49:37.193Z,48.20
2017-12-19T11:52:03.625Z,44.80
2017-12-19T11:54:30.090Z,44.83
2017-12-19T11:56:56.474Z,42.23
2017-12-19T11:59:23.133Z,44.70
2017-12-19T12:01:49.545Z,42.83
2017-12-19T12:04:15.982Z,43.37
2017-12-19T12:06:42.406Z,44.23
2017-12-19T12:09:08.798Z,42.83
2017-12-19T12:11:35.234Z,36.47
2017-12-19T12:14:01.656Z,41.20
2017-12-19T12:16:28.100Z,43.33
2017-12-19T12:18:54.572Z,44.33
2017-12-19T12:21:21.104Z,47.87
2017-12-19T12:23:47.709Z,40.50
2017-12-19T12:26:14.261Z,37.37
2017-12-19T12:28:40.848Z,41.43
2017-12-19T12:31:07.254Z,41.33
2017-12-19T12:33:33.673Z,40.90
2017-12-19T12:36:00.173Z,40.33
2017-12-19T12:38:26.625Z,39.23
2017-12-19T12:40:53.109Z,43.97
2017-12-19T12:43:19.522Z,40.03
2017-12-19T12:45:45.875Z,44.10
2017-12-19T12:48:12.257Z,44.40
2017-12-19T12:50:38.662Z,45.67
2017-12-19T12:53:05.029Z,50.90
2017-12-19T12:55:31.442Z,43.30
2017-12-19T12:57:57.821Z,44.57
2017-12-19T13:00:24.246Z,46.37
2017-12-19T13:02:50.716Z,52.73
2017-12-19T13:05:17.194Z,52.53
2017-12-19T13:07:43.758Z,54.13
2017-12-19T13:10:10.181Z,56.93
2017-12-19T13:12:36.639Z,51.37
2017-12-19T13:15:03.098Z,50.80
2017-12-19T13:17:29.506Z,50.23
2017-12-19T13:19:55.901Z,47.87
2017-12-19T13:22:22.254Z,54.10
2017-12-19T13:24:48.611Z,51.77
2017-12-19T13:27:15.026Z,50.60
2017-12-19T13:29:41.366Z,53.30
2017-12-19T13:32:07.716Z,47.23
2017-12-19T13:34:34.422Z,43.10
2017-12-19T13:37:03.584Z,47.73
2017-12-19T13:39:29.966Z,42.37
2017-12-19T13:41:56.373Z,39.87
2017-12-19T13:44:22.726Z,46.70
2017-12-19T13:46:49.101Z,46.07
2017-12-19T13:49:15.718Z,50.07
2017-12-19T13:51:42.066Z,54.07
2017-12-19T13:54:08.417Z,50.10
2017-12-19T13:56:34.814Z,46.97
2017-12-19T13:59:01.281Z,45.87
2017-12-19T14:01:27.681Z,43.43
2017-12-19T14:03:54.129Z,47.00
2017-12-19T14:06:20.858Z,52.17
2017-12-19T14:08:47.501Z,46.67
2017-12-19T14:11:13.934Z,45.50
2017-12-19T14:13:40.325Z,44.47
2017-12-19T14:16:06.693Z,45.03
2017-12-19T14:18:33.109Z,51.30
2017-12-19T14:20:59.473Z,49.43
2017-12-19T14:23:26.013Z,45.50
2017-12-19T14:25:52.465Z,47.27
2017-12-19T14:28:18.822Z,48.30
2017-12-19T14:30:45.172Z,48.50
2017-12-19T14:33:19.117Z,52.97
2017-12-19T14:35:45.670Z,53.53
2017-12-19T14:38:12.101Z,55.30
2017-12-19T14:40:38.453Z,61.93
2017-12-19T14:43:04.861Z,56.53
2017-12-19T14:45:31.219Z,54.77
2017-12-19T14:47:57.593Z,63.10
2017-12-19T14:50:23.994Z,55.83
2017-12-19T14:52:50.414Z,65.23
2017-12-19T14:55:16.778Z,74.43
2017-12-19T14:57:43.189Z,72.80
2017-12-19T15:00:09.611Z,62.87
2017-12-19T15:02:36.070Z,67.77
2017-12-19T15:05:02.477Z,65.90
2017-12-19T15:07:29.017Z,65.97
2017-12-19T15:09:55.369Z,61.77
2017-12-19T15:12:21.780Z,57.23
2017-12-19T15:14:48.111Z,66.20
2017-12-19T15:17:14.562Z,75.90
2017-12-19T15:19:40.941Z,94.10
2017-12-19T15:22:07.264Z,89.50
2017-12-19T15:24:33.926Z,64.13
2017-12-19T15:27:00.503Z,61.10
2017-12-19T15:29:26.836Z,68.80
2017-12-19T15:31:53.197Z,77.23
2017-12-19T15:34:19.702Z,75.87
2017-12-19T15:36:46.042Z,75.17
2017-12-19T15:39:12.374Z,77.10
2017-12-19T15:41:38.853Z,80.53
2017-12-19T15:44:05.226Z,77.53
2017-12-19T15:46:31.645Z,78.43
2017-12-19T15:48:58.074Z,76.37
2017-12-19T15:51:24.454Z,77.93
2017-12-19T15:53:50.801Z,83.10
2017-12-19T15:56:17.164Z,79.47
2017-12-19T15:58:43.704Z,70.53
2017-12-19T16:01:10.061Z,66.13
2017-12-19T16:03:36.527Z,71.50
2017-12-19T16:06:02.901Z,83.27
2017-12-19T16:08:29.241Z,97.53
2017-12-19T16:10:55.630Z,94.30
2017-12-19T16:13:21.989Z,98.00
2017-12-19T16:15:48.386Z,123.07
2017-12-19T16:18:14.793Z,131.93
2017-12-19T16:20:41.121Z,153.67
2017-12-19T16:23:08.293Z,146.90
2017-12-19T16:25:34.653Z,144.00
2017-12-19T16:28:01.028Z,135.67
2017-12-19T16:30:27.486Z,127.90
2017-12-19T16:32:53.917Z,128.83
2017-12-19T16:35:20.412Z,136.60
2017-12-19T16:37:46.962Z,134.20
2017-12-19T16:40:13.354Z,172.67
2017-12-19T16:42:39.706Z,197.43
2017-12-19T16:45:06.038Z,245.23
2017-12-19T16:47:32.541Z,254.07
2017-12-19T16:49:58.870Z,289.07
2017-12-19T16:52:25.229Z,292.27
2017-12-19T16:54:51.602Z,290.40
2017-12-19T16:57:17.929Z,297.53
2017-12-19T16:59:44.260Z,307.60
2017-12-19T17:02:10.617Z,241.00
2017-12-19T17:04:37.049Z,245.80
2017-12-19T17:07:03.401Z,278.67
2017-12-19T17:09:29.812Z,305.93
2017-12-19T17:11:56.166Z,348.07
2017-12-19T17:14:22.513Z,366.13
2017-12-19T17:16:48.906Z,343.63
2017-12-19T17:19:15.245Z,311.20
2017-12-19T17:21:41.576Z,296.97
2017-12-19T17:24:07.929Z,277.50
2017-12-19T17:26:34.282Z,277.27
2017-12-19T17:29:00.669Z,278.93
2017-12-19T17:31:27.117Z,289.83
2017-12-19T17:33:53.478Z,307.97
2017-12-19T17:36:19.971Z,285.70
2017-12-19T17:38:46.364Z,313.90
2017-12-19T17:41:12.743Z,288.10
2017-12-19T17:43:39.108Z,301.00
2017-12-19T17:46:05.506Z,226.63
2017-12-19T17:48:31.999Z,206.73
2017-12-19T17:50:58.339Z,229.30
2017-12-19T17:53:24.709Z,242.67
2017-12-19T17:55:51.034Z,258.33
2017-12-19T17:58:18.270Z,313.13
2017-12-19T18:00:44.654Z,335.07
2017-12-19T18:03:11.005Z,338.77
2017-12-19T18:05:37.330Z,318.80
2017-12-19T18:08:03.702Z,304.23
2017-12-19T18:10:30.049Z,281.80
2017-12-19T18:12:56.381Z,268.37
2017-12-19T18:15:22.783Z,241.07
2017-12-19T18:17:49.182Z,242.10
2017-12-19T18:20:15.554Z,269.17
2017-12-19T18:22:42.006Z,237.63
2017-12-19T18:25:08.321Z,204.60
2017-12-19T18:27:34.654Z,197.57
2017-12-19T18:30:01.041Z,203.47
2017-12-19T18:32:27.426Z,194.73
2017-12-19T18:34:53.792Z,141.97
2017-12-19T18:37:20.262Z,161.80
2017-12-19T18:39:46.589Z,143.60
2017-12-19T18:42:12.913Z,155.03
2017-12-19T18:44:39.286Z,148.43
2017-12-19T18:47:05.608Z,157.67
2017-12-19T18:49:31.947Z,163.73
2017-12-19T18:51:58.379Z,149.67
2017-12-19T18:54:24.752Z,149.83
2017-12-19T18:56:51.085Z,140.27
2017-12-19T18:59:17.466Z,146.00
2017-12-19T19:01:43.819Z,148.27
2017-12-19T19:04:10.141Z,154.50
2017-12-19T19:06:36.530Z,162.90
2017-12-19T19:09:03.001Z,160.27
2017-12-19T19:11:29.638Z,157.63
2017-12-19T19:13:56.048Z,166.60
2017-12-19T19:16:22.404Z,169.93
2017-12-19T19:18:48.749Z,165.33
2017-12-19T19:21:15.297Z,159.27
2017-12-19T19:23:41.805Z,157.43
2017-12-19T19:26:08.205Z,161.13
2017-12-19T19:28:34.577Z,151.87
2017-12-19T19:31:00.991Z,149.20
2017-12-19T19:33:27.350Z,153.23
2017-12-19T19:35:53.859Z,164.60
2017-12-19T19:38:20.474Z,155.47
2017-12-19T19:40:46.825Z,162.93
2017-12-19T19:43:13.249Z,159.07
2017-12-19T19:45:39.586Z,165.33
2017-12-19T19:48:05.926Z,172.23
2017-12-19T19:50:32.313Z,170.30
2017-12-19T19:52:58.639Z,187.40
2017-12-19T19:55:25.091Z,201.57
2017-12-19T19:57:51.466Z,222.53
2017-12-19T20:00:17.809Z,223.37
2017-12-19T20:02:44.174Z,226.03
2017-12-19T20:05:10.605Z,233.47
2017-12-19T20:07:36.990Z,246.70
2017-12-19T20:10:03.362Z,248.53
2017-12-19T20:12:29.742Z,254.10
2017-12-19T20:14:56.102Z,269.67
2017-12-19T20:17:22.458Z,263.97
2017-12-19T20:19:48.833Z,288.53
2017-12-19T20:22:15.174Z,294.50
2017-12-19T20:24:41.637Z,300.13
2017-12-19T20:27:08.026Z,309.27
2017-12-19T20:29:34.382Z,300.47
2017-12-19T20:32:00.737Z,310.03
2017-12-19T20:34:27.114Z,294.70
2017-12-19T20:36:53.473Z,309.07
2017-12-19T20:39:19.849Z,278.53
2017-12-19T20:41:46.254Z,266.70
2017-12-19T20:44:12.610Z,260.27
2017-12-19T20:46:39.370Z,293.37
2017-12-19T20:49:05.790Z,276.33
2017-12-19T20:51:32.145Z,269.57
2017-12-19T20:53:58.497Z,227.53
2017-12-19T20:56:24.910Z,187.67
2017-12-19T20:58:51.257Z,182.50
2017-12-19T21:01:17.605Z,171.27
2017-12-19T21:03:44.006Z,183.27
2017-12-19T21:06:10.333Z,218.93
2017-12-19T21:08:36.677Z,235.77
2017-12-19T21:11:03.064Z,193.30
2017-12-19T21:13:29.415Z,178.23
2017-12-19T21:15:55.748Z,164.77
2017-12-19T21:18:22.206Z,142.57
2017-12-19T21:20:48.542Z,146.23
2017-12-19T21:23:14.926Z,140.93
2017-12-19T21:25:41.362Z,133.17
2017-12-19T21:28:07.722Z,133.57
2017-12-19T21:30:34.094Z,115.63
2017-12-19T21:33:00.453Z,124.43
2017-12-19T21:35:26.841Z,115.23
2017-12-19T21:37:53.240Z,125.90
2017-12-19T21:40:19.606Z,132.13
2017-12-19T21:42:45.989Z,141.07
2017-12-19T21:45:12.346Z,149.00
2017-12-19T21:47:38.773Z,153.53
2017-12-19T21:50:05.128Z,178.67
2017-12-19T21:52:31.504Z,196.93
2017-12-19T21:54:57.874Z,197.37
2017-12-19T21:57:24.190Z,203.27
2017-12-19T21:59:50.510Z,184.67
2017-12-19T22:02:16.881Z,171.97
2017-12-19T22:04:43.266Z,171.67
2017-12-19T22:07:09.597Z,175.00
2017-12-19T22:09:35.965Z,175.43
2017-12-19T22:12:02.294Z,182.20
2017-12-19T22:14:28.638Z,189.27
2017-12-19T22:16:54.998Z,181.23
2017-12-19T22:19:21.330Z,181.20
2017-12-19T22:21:47.685Z,176.00
2017-12-19T22:24:14.069Z,152.57
2017-12-19T22:26:40.414Z,137.57
2017-12-19T22:29:06.765Z,140.43
2017-12-19T22:31:33.137Z,133.50
2017-12-19T22:33:59.450Z,136.87
2017-12-19T22:36:25.950Z,142.47
2017-12-19T22:38:52.317Z,129.70
2017-12-19T22:41:18.657Z,123.50
2017-12-19T22:43:45.095Z,126.30
2017-12-19T22:46:11.458Z,120.20
2017-12-19T22:48:37.794Z,123.60
2017-12-19T22:51:04.122Z,130.07
2017-12-19T22:53:30.521Z,137.10
2017-12-19T22:55:56.852Z,137.43
2017-12-19T22:58:23.185Z,140.90
2017-12-19T23:00:49.654Z,136.37
2017-12-19T23:03:16.025Z,124.47
2017-12-19T23:05:42.370Z,121.80
2017-12-19T23:08:08.742Z,119.27
2017-12-19T23:10:35.075Z,116.07
2017-12-19T23:13:01.450Z,119.87
2017-12-19T23:15:27.806Z,109.80
2017-12-19T23:17:54.136Z,118.20
2017-12-19T23:20:20.573Z,108.30
2017-12-19T23:22:46.944Z,99.93
2017-12-19T23:25:13.266Z,97.10
2017-12-19T23:27:39.633Z,105.87
2017-12-19T23:30:06.079Z,102.77
2017-12-19T23:32:32.410Z,107.10
2017-12-19T23:34:58.749Z,106.97
2017-12-19T23:37:25.125Z,97.53
2017-12-19T23:39:51.457Z,97.37
2017-12-19T23:42:17.814Z,92.63
2017-12-19T23:44:44.193Z,91.83
2017-12-19T23:47:10.541Z,94.23
2017-12-19T23:49:36.882Z,89.57
2017-12-19T23:52:03.261Z,80.77
2017-12-19T23:54:29.605Z,88.83
2017-12-19T23:56:55.937Z,81.90
2017-12-19T23:59:22.298Z,84.27
